Airfield :
LOGIN :

Register | Disclaimer

   EN    FR    IT 

 










Legend :    VFR   Marginal VFR   IFR   Intensive IFR   Very Intensive IFR
Visi :
Ceiling :
>= 8 km
>= 3000ft
5 to 8 km
1000 to 3000 ft
1500m to 5 km
500 to 1000 ft
800 to 1500m
200 to 500 ft
< 800m
< 200 ft
Symbols :   Thunderstorms  Fog  Heavy snow  Heavy precipitations  Wind > 20 kt
SIGMETs :     Misc.  Thunderstorms  Icing  Turbulence  Mountain Waves  Volcanic Ashes






- Airport Elevation : 308 ft
- IATA code : POZ


EPPO - Poznan-Lawica

CURRENT METAR :
  • 112000Z 13010KT 6000 NSC 03/02 Q1010

EXPIRED METARs :
  • 111930Z 13010KT 6000 NSC 03/02 Q1011
  • 111900Z 13010KT 9000 NSC 03/01 Q1011
  • 111830Z 13010KT 9000 NSC 03/01 Q1011
  • 111800Z 12007KT 5000 BR NSC 02/00 Q1011
  • 111730Z 10006KT 3000 BR NSC 02/01 Q1012

TAF TAF EPPO
Valid from the 11 at 18:00 until the 12 at 18:00 UTC


111730Z 1118/1218 12006KT 6000 NSC
TEMPO 1118/1209 2500 BR
BECMG 1200/1203 BKN012
TEMPO 1203/1218 BKN004 BKN012
PROB40 1209/1218 4000 RA BR



MET'MAP, your aeronautical weather chart ! - Copyright ORBIFLY December 2007 - Disclaimer

ORBIFLY MET'MAP TEAM :

Programming & Development : Alexandra Zaïnal
Concept & Development : Baudouin d'Aumeries
Co-Development & Prog : Marc-Olivier Méhu
Technical & hardware support : Manuel Goepfert

Contact : metmap@orbifly.com




SOURCES & CREDITS :

   NOAA